Time;durP1;ratioP1;P1;durP2;ratioP2;P2;SDS_P1;SDS_P2;PMS_P1;PMS_P2;Temp;Humidity;BMP_temperature;BMP_pressure;BME280_temperature;BME280_humidity;BME280_pressure;Samples;Min_cycle;Max_cycle;Signal;HPM_P1;HPM_P2
2023/08/15 00:02:15;;;;;;;8.32;7.53;;;19.10;99.90;;;;;;4992094;28;92585;-33
2023/08/15 00:04:41;;;;;;;11.85;8.43;;;19.10;99.90;;;;;;4990260;28;92883;-36
2023/08/15 00:07:07;;;;;;;7.82;7.13;;;19.00;99.90;;;;;;4991703;28;95042;-34
2023/08/15 00:09:32;;;;;;;8.95;8.07;;;19.00;99.90;;;;;;4997476;28;94324;-34
2023/08/15 00:11:59;;;;;;;9.05;7.25;;;19.00;99.90;;;;;;4996566;28;93667;-33
2023/08/15 00:14:25;;;;;;;6.65;6.07;;;19.00;99.90;;;;;;4997543;28;92924;-35
2023/08/15 00:16:50;;;;;;;7.50;6.03;;;18.90;99.90;;;;;;4997164;28;94648;-36
2023/08/15 00:19:16;;;;;;;12.07;7.25;;;19.00;99.90;;;;;;4996011;28;94429;-35
2023/08/15 00:21:41;;;;;;;8.63;7.05;;;18.90;99.90;;;;;;4994355;28;94123;-36
2023/08/15 00:24:07;;;;;;;10.85;7.07;;;18.90;99.90;;;;;;4986289;28;93095;-36
2023/08/15 00:26:33;;;;;;;12.70;7.93;;;18.90;99.90;;;;;;4996919;28;93327;-32
2023/08/15 00:28:59;;;;;;;11.65;6.85;;;18.80;99.90;;;;;;4997267;28;95097;-31
2023/08/15 00:31:25;;;;;;;12.70;7.68;;;18.70;99.90;;;;;;4996301;28;94943;-33
2023/08/15 00:33:50;;;;;;;8.73;7.18;;;18.60;99.90;;;;;;4997666;28;93950;-31
2023/08/15 00:36:17;;;;;;;9.48;7.25;;;18.60;99.90;;;;;;4995380;28;94465;-31
2023/08/15 00:38:43;;;;;;;8.10;6.75;;;18.60;99.90;;;;;;4994165;28;94772;-38
2023/08/15 00:41:09;;;;;;;8.20;6.50;;;18.60;99.90;;;;;;4979871;28;94292;-36
2023/08/15 00:43:35;;;;;;;10.00;6.32;;;18.60;99.90;;;;;;4981310;28;92691;-33
2023/08/15 00:46:04;;;;;;;7.32;6.68;;;18.60;99.90;;;;;;4979097;28;95663;-34
2023/08/15 00:48:32;;;;;;;17.67;7.60;;;18.60;99.90;;;;;;4984485;28;95699;-33
2023/08/15 00:50:59;;;;;;;8.50;7.65;;;18.60;99.90;;;;;;4988076;28;93256;-36
2023/08/15 00:53:27;;;;;;;8.17;7.37;;;18.50;99.90;;;;;;4982254;28;93139;-33
2023/08/15 00:55:55;;;;;;;10.53;7.03;;;18.60;99.90;;;;;;4978909;28;95537;-31
2023/08/15 00:58:21;;;;;;;8.50;6.93;;;18.50;99.90;;;;;;4981696;28;94248;-31
2023/08/15 01:00:47;;;;;;;8.82;6.70;;;18.50;99.90;;;;;;4983204;28;94264;-34
2023/08/15 01:03:13;;;;;;;7.10;6.13;;;18.50;99.90;;;;;;4993751;28;91983;-32
2023/08/15 01:05:39;;;;;;;7.03;6.32;;;18.50;99.90;;;;;;4991029;28;95381;-33
2023/08/15 01:08:06;;;;;;;9.93;7.13;;;18.50;99.90;;;;;;4993645;28;93459;-34
2023/08/15 01:10:32;;;;;;;8.13;7.35;;;18.50;99.90;;;;;;4991849;28;95631;-31
2023/08/15 01:13:19;;;;;;;7.05;6.35;;;18.50;99.90;;;;;;4993900;28;92295;-35
2023/08/15 01:15:50;;;;;;;7.53;6.55;;;18.50;99.90;;;;;;4991093;28;95019;-33
2023/08/15 01:18:25;;;;;;;8.48;7.07;;;18.40;99.90;;;;;;4992268;28;94513;-33
2023/08/15 01:20:53;;;;;;;12.27;7.80;;;18.40;99.90;;;;;;4991271;28;94472;-33
2023/08/15 01:23:26;;;;;;;13.63;7.20;;;18.40;99.90;;;;;;4989053;28;94238;-33
2023/08/15 01:25:55;;;;;;;11.20;6.80;;;18.40;99.90;;;;;;4964973;28;116448;-32
2023/08/15 01:28:21;;;;;;;10.00;7.68;;;18.40;99.90;;;;;;4968891;28;96062;-35
2023/08/15 01:30:59;;;;;;;9.23;7.50;;;18.40;99.90;;;;;;4996019;28;95182;-32
2023/08/15 01:33:28;;;;;;;9.45;7.75;;;18.40;99.90;;;;;;4992270;28;94094;-35
2023/08/15 01:36:03;;;;;;;11.52;8.05;;;18.30;99.90;;;;;;4992104;28;95781;-35
2023/08/15 01:38:39;;;;;;;8.70;7.80;;;18.30;99.90;;;;;;4993183;28;96757;-31
2023/08/15 01:41:08;;;;;;;12.38;10.15;;;18.30;99.90;;;;;;4986590;28;93545;-37
2023/08/15 01:43:36;;;;;;;13.18;7.90;;;18.30;99.90;;;;;;4991918;28;92178;-34
2023/08/15 01:46:03;;;;;;;9.57;8.50;;;18.30;99.90;;;;;;4984358;28;94423;-35
2023/08/15 01:48:28;;;;;;;12.43;8.48;;;18.30;99.90;;;;;;4975933;28;93375;-34
2023/08/15 01:50:54;;;;;;;9.45;8.35;;;18.20;99.90;;;;;;4988092;28;92112;-33
2023/08/15 01:53:20;;;;;;;11.57;8.18;;;18.30;99.90;;;;;;4996310;28;94734;-32
2023/08/15 01:55:46;;;;;;;15.07;10.40;;;18.30;99.90;;;;;;4996027;28;94985;-34
2023/08/15 01:58:11;;;;;;;15.50;8.43;;;18.30;99.90;;;;;;4975866;28;94541;-37
2023/08/15 02:00:37;;;;;;;10.52;8.52;;;18.30;99.90;;;;;;4987663;28;93403;-31
2023/08/15 02:03:03;;;;;;;15.13;9.23;;;18.20;99.90;;;;;;4995997;28;95246;-33
2023/08/15 02:05:28;;;;;;;11.30;9.15;;;18.30;99.90;;;;;;4995044;28;94598;-31
2023/08/15 02:07:54;;;;;;;11.52;9.98;;;18.20;99.90;;;;;;4995763;28;94466;-35
2023/08/15 02:10:23;;;;;;;12.43;10.18;;;18.20;99.90;;;;;;4994792;28;94457;-38
2023/08/15 02:12:48;;;;;;;10.25;9.13;;;18.20;99.90;;;;;;4994985;28;92202;-35
2023/08/15 02:15:14;;;;;;;13.23;9.95;;;18.30;99.90;;;;;;4994597;28;93249;-36
2023/08/15 02:17:40;;;;;;;12.82;9.95;;;18.20;99.90;;;;;;4995703;28;95121;-38
2023/08/15 02:20:06;;;;;;;12.82;10.00;;;18.30;99.90;;;;;;4996023;28;92132;-36
2023/08/15 02:22:32;;;;;;;13.93;9.93;;;18.20;99.90;;;;;;4997190;28;92171;-31
2023/08/15 02:24:58;;;;;;;11.68;10.40;;;18.20;99.90;;;;;;4982843;28;95289;-34
2023/08/15 02:27:23;;;;;;;9.60;8.73;;;18.20;99.90;;;;;;4977881;28;94583;-32
2023/08/15 02:29:51;;;;;;;9.55;8.65;;;18.20;99.90;;;;;;4979454;28;94280;-33
2023/08/15 02:32:17;;;;;;;10.70;9.07;;;18.20;99.90;;;;;;4980011;28;94832;-32
2023/08/15 02:34:43;;;;;;;10.32;8.20;;;18.20;99.90;;;;;;4979666;28;94683;-32
2023/08/15 02:37:09;;;;;;;9.73;8.73;;;18.20;99.90;;;;;;4989063;28;94625;-33
2023/08/15 02:39:34;;;;;;;10.90;9.50;;;18.20;99.90;;;;;;4987612;28;92819;-32
2023/08/15 02:42:00;;;;;;;9.05;8.25;;;18.20;99.90;;;;;;4996972;28;93757;-34
2023/08/15 02:44:26;;;;;;;11.52;9.05;;;18.20;99.90;;;;;;4987018;28;94312;-37
2023/08/15 02:46:51;;;;;;;10.30;9.30;;;18.20;99.90;;;;;;4983203;28;93990;-31
2023/08/15 02:49:18;;;;;;;15.57;9.85;;;18.20;99.90;;;;;;4998689;28;94372;-31
2023/08/15 02:51:43;;;;;;;11.98;10.88;;;18.20;99.90;;;;;;4980149;28;92694;-33
2023/08/15 02:54:09;;;;;;;14.25;9.70;;;18.20;99.90;;;;;;4977880;28;94802;-31
2023/08/15 02:56:35;;;;;;;11.52;9.60;;;18.20;99.90;;;;;;4979699;28;94423;-34
2023/08/15 02:59:00;;;;;;;13.32;9.13;;;18.20;99.90;;;;;;4979460;28;92622;-34
2023/08/15 03:01:26;;;;;;;12.20;9.02;;;18.20;99.90;;;;;;4987222;28;94699;-34
2023/08/15 03:03:52;;;;;;;11.65;9.98;;;18.20;99.90;;;;;;4983124;28;94884;-31
2023/08/15 03:06:17;;;;;;;11.05;10.10;;;18.20;99.90;;;;;;4978156;28;95023;-30
2023/08/15 03:08:43;;;;;;;11.48;10.32;;;18.30;99.90;;;;;;4978136;28;92430;-31
2023/08/15 03:11:09;;;;;;;10.50;9.52;;;18.30;99.90;;;;;;4977718;28;94574;-30
2023/08/15 03:13:35;;;;;;;13.85;9.80;;;18.20;99.90;;;;;;4978911;28;95382;-32
2023/08/15 03:16:01;;;;;;;12.88;9.93;;;18.20;99.90;;;;;;4991464;28;97549;-32
2023/08/15 03:18:26;;;;;;;12.25;10.80;;;18.30;99.90;;;;;;4988071;28;93216;-34
2023/08/15 03:21:03;;;;;;;10.65;9.27;;;18.30;99.90;;;;;;4978304;28;94757;-31
2023/08/15 03:23:29;;;;;;;13.02;11.40;;;18.30;99.90;;;;;;4991022;28;95143;-32
2023/08/15 03:25:59;;;;;;;15.57;13.02;;;18.30;99.90;;;;;;4988319;28;93789;-37
2023/08/15 03:28:26;;;;;;;15.25;12.48;;;18.40;99.90;;;;;;4979823;28;95650;-37
2023/08/15 03:30:51;;;;;;;17.98;14.77;;;18.40;99.90;;;;;;4979313;28;92297;-31
2023/08/15 03:33:17;;;;;;;16.65;14.90;;;18.40;99.90;;;;;;4977208;28;94699;-32
2023/08/15 03:35:47;;;;;;;16.17;14.55;;;18.50;99.90;;;;;;4978318;28;94596;-32
2023/08/15 03:38:15;;;;;;;17.45;14.20;;;18.60;99.90;;;;;;4990279;28;93069;-34
2023/08/15 03:40:42;;;;;;;17.08;14.52;;;18.70;99.90;;;;;;4977156;28;94490;-32
2023/08/15 03:43:08;;;;;;;18.50;15.05;;;18.70;99.90;;;;;;4977260;28;94957;-32
2023/08/15 03:45:33;;;;;;;15.82;14.18;;;18.70;99.90;;;;;;4977131;28;94305;-35
2023/08/15 03:47:59;;;;;;;16.90;13.98;;;18.80;99.90;;;;;;4976732;28;93484;-37
2023/08/15 03:50:25;;;;;;;19.73;14.52;;;18.80;99.90;;;;;;4977106;28;92314;-31
2023/08/15 03:52:50;;;;;;;18.98;16.10;;;18.90;99.90;;;;;;4977565;28;95386;-33
2023/08/15 03:55:16;;;;;;;17.27;13.80;;;19.00;99.90;;;;;;4978094;28;95054;-33
2023/08/15 03:57:41;;;;;;;14.48;13.10;;;18.90;99.90;;;;;;4978365;28;92969;-31
2023/08/15 04:00:09;;;;;;;18.73;14.00;;;19.00;99.90;;;;;;4976861;28;92253;-36
2023/08/15 04:02:35;;;;;;;18.07;16.23;;;19.00;99.90;;;;;;4990101;28;95861;-31
2023/08/15 04:05:00;;;;;;;16.42;14.68;;;19.00;99.90;;;;;;4994326;28;95247;-35
2023/08/15 04:07:26;;;;;;;17.83;15.20;;;19.00;99.90;;;;;;4990746;28;92335;-37
2023/08/15 04:09:51;;;;;;;18.60;16.13;;;19.00;99.90;;;;;;4994317;28;93243;-38
2023/08/15 04:12:17;;;;;;;17.92;15.98;;;19.00;99.90;;;;;;4991054;28;94350;-33
2023/08/15 04:14:43;;;;;;;16.98;15.27;;;19.10;99.90;;;;;;4993590;28;94007;-34
2023/08/15 04:17:08;;;;;;;16.92;12.25;;;19.00;99.90;;;;;;4993140;28;94634;-32
2023/08/15 04:19:34;;;;;;;19.30;16.85;;;19.00;99.90;;;;;;4993113;28;93060;-34
2023/08/15 04:21:59;;;;;;;18.45;16.52;;;19.10;99.90;;;;;;4990940;28;94403;-35
2023/08/15 04:24:25;;;;;;;18.80;16.80;;;19.10;99.90;;;;;;4993317;28;93878;-31
2023/08/15 04:26:50;;;;;;;19.23;17.33;;;19.10;99.90;;;;;;4990881;28;95202;-37
2023/08/15 04:29:16;;;;;;;20.48;18.38;;;19.10;99.90;;;;;;4993882;28;93744;-34
2023/08/15 04:31:42;;;;;;;18.73;16.77;;;19.10;99.90;;;;;;4990497;28;94880;-35
2023/08/15 04:34:07;;;;;;;20.33;18.25;;;19.10;99.90;;;;;;4993792;28;94595;-33
2023/08/15 04:36:33;;;;;;;18.10;16.05;;;19.10;99.90;;;;;;4980018;28;93036;-32
2023/08/15 04:38:59;;;;;;;20.05;18.10;;;19.10;99.90;;;;;;4992165;28;93732;-35
2023/08/15 04:41:25;;;;;;;22.85;18.10;;;19.10;99.90;;;;;;4991626;28;94902;-32
2023/08/15 04:43:50;;;;;;;23.55;19.58;;;19.10;99.90;;;;;;4983144;28;94426;-32
2023/08/15 04:46:16;;;;;;;20.00;18.10;;;19.10;99.90;;;;;;4988317;28;92817;-32
2023/08/15 04:48:41;;;;;;;19.73;17.73;;;19.00;99.90;;;;;;4991743;28;93429;-33
2023/08/15 04:51:07;;;;;;;25.55;19.02;;;19.00;99.90;;;;;;4991365;28;95591;-36
2023/08/15 04:53:33;;;;;;;22.08;18.45;;;19.10;99.90;;;;;;4991977;28;95406;-35
2023/08/15 04:55:58;;;;;;;17.88;16.02;;;19.00;99.90;;;;;;4992730;28;92249;-32
2023/08/15 04:58:24;;;;;;;19.20;17.30;;;19.00;99.90;;;;;;4992911;28;93712;-31
2023/08/15 05:00:50;;;;;;;21.23;18.60;;;19.10;99.90;;;;;;4990972;28;94594;-34
2023/08/15 05:03:15;;;;;;;18.92;16.23;;;19.10;99.90;;;;;;4996081;28;94771;-31
2023/08/15 05:05:41;;;;;;;22.58;19.83;;;19.10;99.90;;;;;;4994934;28;92732;-31
2023/08/15 05:08:06;;;;;;;24.00;18.83;;;19.00;99.90;;;;;;4996303;28;94203;-32
2023/08/15 05:10:32;;;;;;;21.45;19.27;;;19.10;99.90;;;;;;4994521;28;94300;-35
2023/08/15 05:12:59;;;;;;;17.73;16.08;;;19.10;99.90;;;;;;4995198;28;94988;-35
2023/08/15 05:15:25;;;;;;;20.90;17.83;;;19.10;99.90;;;;;;4992353;28;93126;-31
2023/08/15 05:17:52;;;;;;;19.08;17.08;;;19.10;99.90;;;;;;4994287;28;94377;-32
2023/08/15 05:20:17;;;;;;;20.08;17.88;;;19.10;99.90;;;;;;4991689;28;94260;-32
2023/08/15 05:22:44;;;;;;;19.85;17.70;;;19.10;99.90;;;;;;4995706;28;93930;-33
2023/08/15 05:25:10;;;;;;;22.30;19.38;;;19.20;99.90;;;;;;4992295;28;94111;-34
2023/08/15 05:27:36;;;;;;;19.65;17.75;;;19.10;99.90;;;;;;4994752;28;94310;-32
2023/08/15 05:30:02;;;;;;;19.35;15.80;;;19.20;99.90;;;;;;4992563;28;92887;-37
2023/08/15 05:32:28;;;;;;;19.75;15.73;;;19.10;99.90;;;;;;4994470;28;93071;-34
2023/08/15 05:34:54;;;;;;;18.17;16.30;;;19.10;99.90;;;;;;4992465;28;92179;-34
2023/08/15 05:37:20;;;;;;;17.60;15.45;;;19.10;99.90;;;;;;4993772;28;93874;-30
2023/08/15 05:39:45;;;;;;;18.50;15.55;;;19.10;99.90;;;;;;4994554;28;95725;-31
2023/08/15 05:42:17;;;;;;;17.73;15.52;;;19.10;99.90;;;;;;4980972;28;95559;-32
2023/08/15 05:44:44;;;;;;;18.88;14.93;;;19.10;99.90;;;;;;4996473;28;93008;-32
2023/08/15 05:47:09;;;;;;;21.98;16.60;;;19.10;99.90;;;;;;4987695;28;94740;-35
2023/08/15 05:49:35;;;;;;;21.13;14.95;;;19.10;99.90;;;;;;4974944;28;94824;-32
2023/08/15 05:52:01;;;;;;;20.38;14.20;;;19.10;99.90;;;;;;4975818;28;95026;-32
2023/08/15 05:54:27;;;;;;;18.02;14.25;;;19.10;99.90;;;;;;4974981;28;92379;-30
2023/08/15 05:56:53;;;;;;;24.38;15.65;;;19.10;99.90;;;;;;4977050;28;93347;-31
2023/08/15 05:59:18;;;;;;;23.23;15.50;;;19.10;99.90;;;;;;4976870;28;94999;-35
2023/08/15 06:01:46;;;;;;;20.17;13.45;;;19.10;99.90;;;;;;4983591;28;95022;-33
2023/08/15 06:04:11;;;;;;;20.10;12.63;;;19.10;99.90;;;;;;4984180;28;93132;-31
2023/08/15 06:06:37;;;;;;;19.17;14.68;;;19.10;99.90;;;;;;4978466;28;95045;-32
2023/08/15 06:09:03;;;;;;;15.75;12.32;;;19.20;99.90;;;;;;4987248;28;95766;-34
2023/08/15 06:11:29;;;;;;;15.88;10.95;;;19.10;99.90;;;;;;4981810;28;94885;-37
2023/08/15 06:13:55;;;;;;;17.25;11.95;;;19.10;99.90;;;;;;4994947;28;94777;-36
2023/08/15 06:16:20;;;;;;;13.00;10.85;;;19.20;99.90;;;;;;4960933;28;92835;-32
2023/08/15 06:18:46;;;;;;;12.68;9.98;;;19.20;99.90;;;;;;4986421;28;94823;-33
2023/08/15 06:21:12;;;;;;;11.18;9.75;;;19.10;99.90;;;;;;4989488;28;94561;-32
2023/08/15 06:23:37;;;;;;;11.05;8.82;;;19.10;99.90;;;;;;4984494;28;93119;-34
2023/08/15 06:26:03;;;;;;;10.20;9.02;;;19.10;99.90;;;;;;4989618;28;96311;-34
2023/08/15 06:28:29;;;;;;;13.13;8.85;;;19.10;99.90;;;;;;4986343;28;96153;-32
2023/08/15 06:30:55;;;;;;;11.55;7.90;;;19.10;99.90;;;;;;4977932;28;95015;-36
2023/08/15 06:33:21;;;;;;;12.20;8.23;;;19.10;99.90;;;;;;4987540;28;93794;-35
2023/08/15 06:35:47;;;;;;;11.30;8.10;;;19.10;99.90;;;;;;4981539;28;93748;-35
2023/08/15 06:38:12;;;;;;;8.52;7.63;;;19.20;99.90;;;;;;4985440;28;95071;-33
2023/08/15 06:40:39;;;;;;;10.32;8.18;;;19.20;99.90;;;;;;4991279;28;94347;-32
2023/08/15 06:43:05;;;;;;;9.38;8.15;;;19.40;99.90;;;;;;4971307;28;93738;-33
2023/08/15 06:45:30;;;;;;;12.70;7.78;;;19.40;99.90;;;;;;4988688;28;92435;-33
2023/08/15 06:47:56;;;;;;;11.30;7.53;;;19.50;99.90;;;;;;4987392;28;95029;-32
2023/08/15 06:50:22;;;;;;;10.02;8.15;;;19.70;99.90;;;;;;4985834;28;95188;-31
2023/08/15 06:52:47;;;;;;;13.35;6.53;;;19.80;99.90;;;;;;4990544;28;93672;-31
2023/08/15 06:55:13;;;;;;;7.35;6.35;;;20.00;99.90;;;;;;4971774;28;93268;-31
2023/08/15 06:57:39;;;;;;;8.63;7.07;;;20.30;99.90;;;;;;4990357;28;94876;-32
2023/08/15 07:00:11;;;;;;;10.35;6.05;;;20.60;99.90;;;;;;4987543;28;95545;-33
2023/08/15 07:02:37;;;;;;;12.35;6.65;;;20.90;99.90;;;;;;4984699;28;93999;-33
2023/08/15 07:05:04;;;;;;;9.88;5.70;;;21.30;99.90;;;;;;4985213;28;93002;-33
2023/08/15 07:07:30;;;;;;;7.25;5.07;;;21.40;99.90;;;;;;4989880;28;94199;-36
2023/08/15 07:09:57;;;;;;;9.50;5.53;;;21.80;99.90;;;;;;4990758;28;93782;-36
2023/08/15 07:12:23;;;;;;;6.63;4.82;;;21.80;99.90;;;;;;4993173;28;94204;-34
2023/08/15 07:14:48;;;;;;;5.72;4.10;;;22.00;99.90;;;;;;4972348;28;93463;-32
2023/08/15 07:17:14;;;;;;;9.07;4.18;;;22.10;99.90;;;;;;4990625;28;95949;-33
2023/08/15 07:19:40;;;;;;;12.82;4.38;;;22.30;99.90;;;;;;4987738;28;95581;-32
2023/08/15 07:22:05;;;;;;;7.65;5.00;;;22.40;99.90;;;;;;4989607;28;93680;-32
2023/08/15 07:24:31;;;;;;;5.75;4.55;;;22.70;99.90;;;;;;4986553;28;95786;-37
2023/08/15 07:26:57;;;;;;;3.97;3.58;;;23.10;99.90;;;;;;4987647;28;95287;-32
2023/08/15 07:29:22;;;;;;;5.03;4.18;;;23.30;99.90;;;;;;4991014;28;94282;-35
2023/08/15 07:31:48;;;;;;;6.85;5.30;;;23.30;99.90;;;;;;4989554;28;93391;-32
2023/08/15 07:34:14;;;;;;;7.90;4.32;;;23.00;99.90;;;;;;4969808;28;93579;-32
2023/08/15 07:36:39;;;;;;;9.68;4.72;;;23.10;99.90;;;;;;4992169;28;95295;-37
2023/08/15 07:39:05;;;;;;;18.00;5.78;;;23.20;99.90;;;;;;4989736;28;94952;-34
2023/08/15 07:41:31;;;;;;;10.43;4.38;;;23.40;99.90;;;;;;4991451;28;96118;-35
2023/08/15 07:43:57;;;;;;;6.43;3.97;;;23.10;99.90;;;;;;4993205;28;94727;-35
2023/08/15 07:46:23;;;;;;;4.70;3.28;;;23.60;99.90;;;;;;4993903;28;94008;-33
2023/08/15 07:48:50;;;;;;;11.05;4.75;;;23.60;99.90;;;;;;4992966;28;95790;-33
2023/08/15 07:51:16;;;;;;;6.10;4.40;;;23.80;99.90;;;;;;4993168;28;94159;-31
2023/08/15 07:53:41;;;;;;;11.35;4.88;;;23.90;99.90;;;;;;4991069;28;93057;-34
2023/08/15 07:56:07;;;;;;;8.52;3.58;;;23.60;99.90;;;;;;4992367;28;95693;-36
2023/08/15 07:58:33;;;;;;;7.82;3.70;;;23.60;99.90;;;;;;4992855;28;95669;-33
2023/08/15 08:00:59;;;;;;;5.13;3.88;;;24.10;99.90;;;;;;4974707;28;93708;-36
2023/08/15 08:03:25;;;;;;;5.28;3.42;;;23.80;99.90;;;;;;4988644;28;94458;-32
2023/08/15 08:05:50;;;;;;;5.97;3.58;;;24.00;99.90;;;;;;4991391;28;96417;-34
2023/08/15 08:08:16;;;;;;;8.52;4.65;;;24.10;99.90;;;;;;4992249;28;95860;-31
2023/08/15 08:10:41;;;;;;;5.13;4.10;;;24.00;99.90;;;;;;4993021;28;93112;-32
2023/08/15 08:13:11;;;;;;;9.10;3.90;;;23.70;99.90;;;;;;4992908;28;92589;-36
2023/08/15 08:15:38;;;;;;;6.47;4.07;;;23.60;99.90;;;;;;4992922;28;93050;-36
2023/08/15 08:18:05;;;;;;;6.90;4.05;;;23.80;99.90;;;;;;4988385;28;96111;-34
2023/08/15 08:20:31;;;;;;;5.75;4.32;;;23.90;99.90;;;;;;4999784;22;92478;-33
2023/08/15 08:22:56;;;;;;;6.28;3.97;;;23.90;99.90;;;;;;4967586;28;92415;-37
2023/08/15 08:25:23;;;;;;;7.28;4.75;;;23.50;99.90;;;;;;4968007;28;94421;-35
2023/08/15 08:27:50;;;;;;;7.10;3.67;;;23.40;99.90;;;;;;4969153;28;94346;-33
2023/08/15 08:30:20;;;;;;;9.20;3.60;;;23.70;99.90;;;;;;4973820;28;93982;-32
2023/08/15 08:32:47;;;;;;;7.28;4.35;;;23.80;99.90;;;;;;4968557;28;93250;-31
2023/08/15 08:35:16;;;;;;;13.93;4.20;;;23.30;99.90;;;;;;4966303;28;94058;-30
2023/08/15 08:37:43;;;;;;;7.47;4.82;;;23.50;99.90;;;;;;4971241;28;95755;-33
2023/08/15 08:40:11;;;;;;;6.20;4.20;;;23.50;99.90;;;;;;4976427;28;94743;-33
2023/08/15 08:42:37;;;;;;;6.68;5.57;;;23.50;99.90;;;;;;4977053;28;92352;-33
2023/08/15 08:45:04;;;;;;;6.72;4.82;;;23.70;99.90;;;;;;4961641;28;94274;-35
2023/08/15 08:47:32;;;;;;;5.75;5.15;;;23.90;99.90;;;;;;4958097;28;96606;-31
2023/08/15 08:49:59;;;;;;;;;;;23.60;99.90;;;;;;4970753;28;93738;-32
2023/08/15 08:52:27;;;;;;;7.27;5.93;;;23.20;99.90;;;;;;4958500;28;93841;-34
2023/08/15 08:54:53;;;;;;;11.88;5.45;;;23.00;99.90;;;;;;4973605;28;96381;-32
2023/08/15 08:57:19;;;;;;;4.88;4.05;;;23.20;99.90;;;;;;4976968;28;95276;-35
2023/08/15 08:59:45;;;;;;;6.32;4.10;;;23.60;99.90;;;;;;4972164;28;92202;-32
2023/08/15 09:02:19;;;;;;;8.95;5.72;;;24.10;99.90;;;;;;4971597;28;93104;-31
2023/08/15 09:04:45;;;;;;;5.05;4.53;;;23.80;99.90;;;;;;4976706;28;95082;-31
2023/08/15 09:07:11;;;;;;;4.25;3.92;;;24.10;99.90;;;;;;4960312;28;94986;-34
2023/08/15 09:09:36;;;;;;;6.20;4.32;;;24.20;99.90;;;;;;4957412;28;94477;-33
2023/08/15 09:12:02;;;;;;;10.10;5.25;;;24.00;99.90;;;;;;4970395;28;92589;-34
2023/08/15 09:14:28;;;;;;;8.50;5.80;;;24.10;99.90;;;;;;4956842;28;94936;-32
2023/08/15 09:16:53;;;;;;;5.80;5.18;;;24.10;99.90;;;;;;4956976;28;94410;-32
2023/08/15 09:19:19;;;;;;;9.90;5.25;;;23.90;99.90;;;;;;4956986;28;93255;-35
2023/08/15 09:21:45;;;;;;;10.45;6.07;;;23.50;99.90;;;;;;4956831;28;92774;-34
2023/08/15 09:24:11;;;;;;;9.93;6.03;;;23.80;99.90;;;;;;4956572;28;94476;-33
2023/08/15 09:26:38;;;;;;;9.43;5.63;;;24.40;99.90;;;;;;4958215;28;94606;-32
2023/08/15 09:29:04;;;;;;;5.80;5.25;;;24.50;99.90;;;;;;4957562;28;93682;-36
2023/08/15 09:31:30;;;;;;;6.13;5.65;;;24.80;99.90;;;;;;4957545;28;92567;-32
2023/08/15 09:33:56;;;;;;;6.25;5.70;;;24.60;99.90;;;;;;4957447;28;95118;-33
2023/08/15 09:36:26;;;;;;;11.35;5.07;;;23.80;99.90;;;;;;4958079;28;94120;-33
2023/08/15 09:38:56;;;;;;;5.60;5.10;;;24.20;99.90;;;;;;4969896;28;92186;-33
2023/08/15 09:41:25;;;;;;;6.72;5.30;;;24.40;99.90;;;;;;4966447;28;94148;-32
2023/08/15 09:43:53;;;;;;;6.70;5.25;;;24.40;99.90;;;;;;4960890;28;96132;-33
2023/08/15 09:46:19;;;;;;;8.45;5.05;;;23.90;99.90;;;;;;4965940;28;95866;-33
2023/08/15 09:48:47;;;;;;;6.07;4.40;;;24.10;99.90;;;;;;4967772;28;94195;-33
2023/08/15 09:51:15;;;;;;;6.35;4.85;;;24.10;99.90;;;;;;4966090;28;94748;-33
2023/08/15 09:53:45;;;;;;;5.75;5.05;;;23.90;99.90;;;;;;4960487;28;95139;-32
2023/08/15 09:56:12;;;;;;;5.45;4.93;;;24.10;99.90;;;;;;4973469;28;94878;-33
2023/08/15 09:58:38;;;;;;;7.85;6.20;;;23.60;99.90;;;;;;4961225;28;93750;-35
2023/08/15 10:01:08;;;;;;;10.40;6.60;;;23.20;99.90;;;;;;4967689;28;93797;-34
2023/08/15 10:03:37;;;;;;;6.60;5.60;;;23.30;99.90;;;;;;4965164;28;94473;-32
2023/08/15 10:06:04;;;;;;;10.82;5.68;;;23.40;99.90;;;;;;4958905;28;96276;-32
2023/08/15 10:08:31;;;;;;;8.10;5.23;;;23.60;99.90;;;;;;4959525;28;93379;-34
2023/08/15 10:10:58;;;;;;;6.90;4.85;;;23.70;99.90;;;;;;4958677;28;94055;-31
2023/08/15 10:13:33;;;;;;;7.85;5.55;;;23.70;99.90;;;;;;4971072;28;94458;-34
2023/08/15 10:16:00;;;;;;;5.75;5.18;;;23.50;99.90;;;;;;4975752;28;93919;-35
2023/08/15 10:18:25;;;;;;;5.57;4.78;;;23.40;99.90;;;;;;4962363;28;93550;-35
2023/08/15 10:20:52;;;;;;;9.15;6.00;;;23.20;99.90;;;;;;4957643;28;93496;-31
2023/08/15 10:23:32;;;;;;;10.00;6.00;;;23.20;99.90;;;;;;4958599;28;93655;-35
2023/08/15 10:25:58;;;;;;;6.03;5.47;;;23.20;99.90;;;;;;4968578;28;95137;-33
2023/08/15 10:28:27;;;;;;;6.05;5.20;;;23.10;99.90;;;;;;4959738;28;94035;-32
2023/08/15 10:30:53;;;;;;;6.22;5.15;;;23.50;99.90;;;;;;4957830;28;93772;-37
2023/08/15 10:33:22;;;;;;;7.28;5.32;;;23.50;99.90;;;;;;4957518;28;96725;-31
2023/08/15 10:35:54;;;;;;;9.15;4.57;;;23.60;99.90;;;;;;4958397;28;95924;-31
2023/08/15 10:38:31;;;;;;;8.65;4.60;;;23.60;99.90;;;;;;4969212;28;93355;-35
2023/08/15 10:41:02;;;;;;;5.70;3.83;;;23.50;99.90;;;;;;4965569;28;93389;-32
2023/08/15 10:43:28;;;;;;;7.00;3.88;;;23.40;99.90;;;;;;4973871;28;95055;-32
2023/08/15 10:45:59;;;;;;;5.13;4.15;;;23.40;99.90;;;;;;4969324;28;94780;-34
2023/08/15 10:48:47;;;;;;;4.03;3.03;;;23.40;99.90;;;;;;4974196;28;93878;-35
2023/08/15 10:51:25;;;;;;;7.85;3.58;;;23.20;99.90;;;;;;4971679;28;91991;-32
2023/08/15 10:53:53;;;;;;;7.45;3.40;;;23.40;99.90;;;;;;4959443;28;94708;-35
2023/08/15 10:56:21;;;;;;;4.80;3.47;;;23.60;99.90;;;;;;4958816;28;94529;-38
2023/08/15 10:58:48;;;;;;;7.10;3.20;;;23.50;99.90;;;;;;4958608;28;95527;-36
2023/08/15 11:01:18;;;;;;;5.38;3.88;;;23.60;99.90;;;;;;4965645;28;94540;-32
2023/08/15 11:03:47;;;;;;;6.80;3.30;;;23.50;99.90;;;;;;4977913;28;95282;-32
2023/08/15 11:06:13;;;;;;;8.25;3.28;;;23.50;99.90;;;;;;4958915;28;94535;-33
2023/08/15 11:08:44;;;;;;;5.97;3.25;;;23.60;99.90;;;;;;4971782;28;94638;-33
2023/08/15 11:11:10;;;;;;;2.78;2.58;;;23.60;99.90;;;;;;4958240;28;92199;-36
2023/08/15 11:13:41;;;;;;;5.65;3.60;;;23.70;99.90;;;;;;4960681;28;94388;-38
2023/08/15 11:16:08;;;;;;;7.28;2.92;;;23.40;99.90;;;;;;4969538;28;94418;-37
2023/08/15 11:18:35;;;;;;;5.17;3.27;;;23.10;99.90;;;;;;4962534;28;92234;-35
2023/08/15 11:21:02;;;;;;;5.77;4.07;;;22.90;99.90;;;;;;4968740;28;94309;-32
2023/08/15 11:23:29;;;;;;;6.57;3.10;;;23.20;99.90;;;;;;4970697;28;95887;-31
2023/08/15 11:26:13;;;;;;;5.43;3.22;;;23.30;99.90;;;;;;4958956;28;95313;-31
2023/08/15 11:28:39;;;;;;;7.03;2.72;;;23.60;99.90;;;;;;4965903;28;92509;-33
2023/08/15 11:31:08;;;;;;;8.25;3.58;;;23.70;99.90;;;;;;4964159;28;93493;-33
2023/08/15 11:33:33;;;;;;;6.60;3.17;;;23.70;99.90;;;;;;4964990;28;94253;-36
2023/08/15 11:36:05;;;;;;;8.07;3.22;;;23.80;99.90;;;;;;4966560;28;93923;-33
2023/08/15 11:38:32;;;;;;;6.22;3.40;;;23.80;99.90;;;;;;4971916;28;94900;-37
2023/08/15 11:40:59;;;;;;;7.22;3.20;;;23.90;99.90;;;;;;4966796;28;91433;-33
2023/08/15 11:43:25;;;;;;;4.57;3.33;;;24.10;99.90;;;;;;4970133;28;94439;-35
2023/08/15 11:45:51;;;;;;;6.93;3.53;;;24.30;99.90;;;;;;4970654;28;95298;-36
2023/08/15 11:48:18;;;;;;;4.18;3.08;;;23.90;99.90;;;;;;4970282;28;94457;-34
2023/08/15 11:50:44;;;;;;;5.30;3.70;;;24.10;99.90;;;;;;4970591;28;92631;-32
2023/08/15 11:53:15;;;;;;;9.15;4.20;;;24.10;99.90;;;;;;4966744;28;94783;-36
2023/08/15 11:55:42;;;;;;;9.95;3.20;;;24.10;99.90;;;;;;4966471;28;94303;-37
2023/08/15 11:58:31;;;;;;;5.38;3.60;;;24.30;99.90;;;;;;4959694;28;93843;-35
2023/08/15 12:01:01;;;;;;;3.20;2.90;;;24.30;99.90;;;;;;4964878;28;94110;-32
2023/08/15 12:03:27;;;;;;;5.25;3.22;;;23.70;99.90;;;;;;4966366;28;94747;-35
2023/08/15 12:05:58;;;;;;;5.82;3.97;;;23.90;99.90;;;;;;4957866;28;94517;-31
2023/08/15 12:08:28;;;;;;;4.72;3.35;;;24.00;99.90;;;;;;4958636;28;92646;-33
2023/08/15 12:10:55;;;;;;;6.28;2.85;;;24.00;99.90;;;;;;4971796;28;93742;-30
2023/08/15 12:13:34;;;;;;;7.90;3.28;;;24.00;99.90;;;;;;4957224;28;97019;-32
2023/08/15 12:16:01;;;;;;;4.38;2.55;;;24.10;99.90;;;;;;4958514;28;95159;-31
2023/08/15 12:18:27;;;;;;;3.10;2.67;;;24.00;99.90;;;;;;4959708;28;94239;-35
2023/08/15 12:20:53;;;;;;;5.22;4.45;;;24.10;99.90;;;;;;4958829;28;92713;-35
2023/08/15 12:23:19;;;;;;;5.45;3.53;;;24.30;99.90;;;;;;4960100;28;94651;-33
2023/08/15 12:25:44;;;;;;;8.27;3.90;;;24.50;99.90;;;;;;4958803;28;94187;-39
2023/08/15 12:28:10;;;;;;;3.70;3.40;;;24.60;99.90;;;;;;4971307;28;94359;-33
2023/08/15 12:30:36;;;;;;;3.38;3.05;;;24.40;99.90;;;;;;4958586;28;92370;-36
2023/08/15 12:33:01;;;;;;;7.47;4.75;;;24.20;99.90;;;;;;4960412;28;95175;-33
2023/08/15 12:35:28;;;;;;;6.85;4.07;;;24.10;99.90;;;;;;4958551;28;94495;-32
2023/08/15 12:37:54;;;;;;;6.85;3.70;;;24.10;99.90;;;;;;4968484;28;95644;-37
2023/08/15 12:40:19;;;;;;;5.30;4.18;;;24.00;99.90;;;;;;4965818;28;93044;-36